createdAt,value
2019-02-20T00:00:05.747Z,61.06
2019-02-20T00:01:14.985Z,61.04
2019-02-20T00:02:19.046Z,61.00
2019-02-20T00:03:23.534Z,60.92
2019-02-20T00:04:27.794Z,60.91
2019-02-20T00:05:32.339Z,60.85
2019-02-20T00:06:36.271Z,60.82
2019-02-20T00:07:40.276Z,60.83
2019-02-20T00:08:44.793Z,60.81
2019-02-20T00:09:48.646Z,60.79
2019-02-20T00:10:52.763Z,60.74
2019-02-20T00:11:56.693Z,60.73
2019-02-20T00:13:00.991Z,60.73
2019-02-20T00:14:05.016Z,60.72
2019-02-20T00:15:09.707Z,60.69
2019-02-20T00:16:13.735Z,60.64
2019-02-20T00:17:18.220Z,60.61
2019-02-20T00:18:22.838Z,60.59
2019-02-20T00:19:26.851Z,60.59
2019-02-20T00:20:30.814Z,60.56
2019-02-20T00:21:35.052Z,60.54
2019-02-20T00:22:40.472Z,60.52
2019-02-20T00:23:44.572Z,60.47
2019-02-20T00:24:48.753Z,60.47
2019-02-20T00:25:52.641Z,60.49
2019-02-20T00:26:56.897Z,60.52
2019-02-20T00:28:01.038Z,60.50
2019-02-20T00:29:05.303Z,60.49
2019-02-20T00:30:09.616Z,60.50
2019-02-20T00:31:13.892Z,60.43
2019-02-20T00:32:18.228Z,60.42
2019-02-20T00:33:22.538Z,60.42
2019-02-20T00:34:26.759Z,60.46
2019-02-20T00:35:31.054Z,60.46
2019-02-20T00:36:35.448Z,60.43
2019-02-20T00:37:39.668Z,60.40
2019-02-20T00:38:43.986Z,60.37
2019-02-20T00:39:48.283Z,60.32
2019-02-20T00:40:52.314Z,60.26
2019-02-20T00:41:56.334Z,60.21
2019-02-20T00:43:00.199Z,60.25
2019-02-20T00:44:19.495Z,60.28
2019-02-20T00:45:42.340Z,60.28
2019-02-20T00:46:54.215Z,60.37
2019-02-20T00:48:17.135Z,60.37
2019-02-20T00:49:42.714Z,60.38
2019-02-20T00:50:47.135Z,60.34
2019-02-20T00:52:10.282Z,60.33
2019-02-20T00:53:22.210Z,60.33
2019-02-20T00:54:26.475Z,60.28
2019-02-20T00:55:30.783Z,60.27
2019-02-20T00:56:34.847Z,60.31
2019-02-20T00:57:39.014Z,60.33
2019-02-20T00:58:43.016Z,60.34
2019-02-20T00:59:46.947Z,60.39
2019-02-20T01:00:50.882Z,60.39
2019-02-20T01:01:54.826Z,60.33
2019-02-20T01:02:59.099Z,60.33
2019-02-20T01:04:03.029Z,60.25
2019-02-20T01:05:07.298Z,60.15
2019-02-20T01:06:11.318Z,60.10
2019-02-20T01:07:15.614Z,60.13
2019-02-20T01:08:19.545Z,60.20
2019-02-20T01:09:23.799Z,60.33
2019-02-20T01:10:27.972Z,60.40
2019-02-20T01:11:32.409Z,60.47
2019-02-20T01:12:36.666Z,60.47
2019-02-20T01:13:40.666Z,60.42
2019-02-20T01:14:44.855Z,60.40
2019-02-20T01:15:49.205Z,60.38
2019-02-20T01:16:53.549Z,60.31
2019-02-20T01:17:57.560Z,60.29
2019-02-20T01:19:01.578Z,60.27
2019-02-20T01:20:06.397Z,60.26
2019-02-20T01:21:10.352Z,60.25
2019-02-20T01:22:14.575Z,60.25
2019-02-20T01:23:18.608Z,60.27
2019-02-20T01:24:22.866Z,60.29
2019-02-20T01:25:26.792Z,60.31
2019-02-20T01:26:30.979Z,60.25
2019-02-20T01:27:35.308Z,60.16
2019-02-20T01:28:39.251Z,60.14
2019-02-20T01:29:43.573Z,60.13
2019-02-20T01:30:47.612Z,60.14
2019-02-20T01:31:51.929Z,60.13
2019-02-20T01:32:55.966Z,60.10
2019-02-20T01:34:00.540Z,60.10
2019-02-20T01:35:04.953Z,60.07
2019-02-20T01:36:09.173Z,60.04
2019-02-20T01:37:13.466Z,60.01
2019-02-20T01:38:17.451Z,60.00
2019-02-20T01:39:21.532Z,60.04
2019-02-20T01:40:25.576Z,60.01
2019-02-20T01:41:29.550Z,60.05
2019-02-20T01:42:33.532Z,60.13
2019-02-20T01:43:37.600Z,60.19
2019-02-20T01:44:41.632Z,60.36
2019-02-20T01:45:46.087Z,60.52
2019-02-20T01:46:53.496Z,60.64
2019-02-20T01:47:57.897Z,60.75
2019-02-20T01:49:01.891Z,60.83
2019-02-20T01:50:06.158Z,60.90
2019-02-20T01:51:10.203Z,60.88
2019-02-20T01:52:14.243Z,60.77
2019-02-20T01:53:18.311Z,60.67
2019-02-20T01:54:22.356Z,60.55
2019-02-20T01:55:26.721Z,60.51
2019-02-20T01:56:30.789Z,60.45
2019-02-20T01:57:34.755Z,60.35
2019-02-20T01:58:39.143Z,60.25
2019-02-20T01:59:43.228Z,60.15
2019-02-20T02:00:47.731Z,60.09
2019-02-20T02:01:51.708Z,60.04
2019-02-20T02:02:55.758Z,60.05
2019-02-20T02:04:00.776Z,60.04
2019-02-20T02:05:05.269Z,60.05
2019-02-20T02:06:09.313Z,60.05
2019-02-20T02:07:13.352Z,60.05
2019-02-20T02:08:17.696Z,60.10
2019-02-20T02:09:21.755Z,60.06
2019-02-20T02:10:25.806Z,60.02
2019-02-20T02:11:30.218Z,59.98
2019-02-20T02:12:34.263Z,59.96
2019-02-20T02:13:38.610Z,59.92
2019-02-20T02:14:42.649Z,59.90
2019-02-20T02:15:46.610Z,59.91
2019-02-20T02:16:51.011Z,59.93
2019-02-20T02:17:55.053Z,59.93
2019-02-20T02:18:59.045Z,59.96
2019-02-20T02:20:03.158Z,60.01
2019-02-20T02:21:07.193Z,60.07
2019-02-20T02:22:11.485Z,60.10
2019-02-20T02:23:19.813Z,60.18
2019-02-20T02:24:21.299Z,60.22
2019-02-20T02:25:25.324Z,60.26
2019-02-20T02:26:29.378Z,60.28
2019-02-20T02:27:33.398Z,60.24
2019-02-20T02:28:37.803Z,60.14
2019-02-20T02:29:41.842Z,60.04
2019-02-20T02:30:46.192Z,60.03
2019-02-20T02:31:50.859Z,60.03
2019-02-20T02:32:54.943Z,60.05
2019-02-20T02:33:58.983Z,60.05
2019-02-20T02:35:03.059Z,60.04
2019-02-20T02:36:07.403Z,60.08
2019-02-20T02:37:11.676Z,60.07
2019-02-20T02:38:15.720Z,60.07
2019-02-20T02:39:19.807Z,60.11
2019-02-20T02:40:23.777Z,60.16
2019-02-20T02:41:28.342Z,60.24
2019-02-20T02:42:32.575Z,60.26
2019-02-20T02:43:36.618Z,60.27
2019-02-20T02:44:40.719Z,60.25
2019-02-20T02:45:44.927Z,60.26
2019-02-20T02:46:48.963Z,60.34
2019-02-20T02:47:52.893Z,60.43
2019-02-20T02:48:56.892Z,60.54
2019-02-20T02:50:01.420Z,60.60
2019-02-20T02:51:05.362Z,60.63
2019-02-20T02:52:09.547Z,60.64
2019-02-20T02:53:13.489Z,60.60
2019-02-20T02:54:17.720Z,60.57
2019-02-20T02:55:21.739Z,60.57
2019-02-20T02:56:25.715Z,60.55
2019-02-20T02:57:29.653Z,60.56
2019-02-20T02:58:33.828Z,60.68
2019-02-20T02:59:37.790Z,60.84
2019-02-20T03:00:41.762Z,61.00
2019-02-20T03:01:45.758Z,61.13
2019-02-20T03:02:49.700Z,61.26
2019-02-20T03:03:53.881Z,61.37
2019-02-20T03:04:57.925Z,61.51
2019-02-20T03:06:02.146Z,61.67
2019-02-20T03:07:06.157Z,61.76
2019-02-20T03:08:10.173Z,61.75
2019-02-20T03:09:14.545Z,61.86
2019-02-20T03:10:18.575Z,61.90
2019-02-20T03:11:22.856Z,61.92
2019-02-20T03:12:27.241Z,61.91
2019-02-20T03:13:31.463Z,62.03
2019-02-20T03:14:36.097Z,62.11
2019-02-20T03:15:40.128Z,62.21
2019-02-20T03:16:44.559Z,62.31
2019-02-20T03:17:48.916Z,62.29
2019-02-20T03:18:53.223Z,62.40
2019-02-20T03:19:57.839Z,62.47
2019-02-20T03:21:02.233Z,62.47
2019-02-20T03:22:06.251Z,62.55
2019-02-20T03:23:10.455Z,62.56
2019-02-20T03:24:14.632Z,62.61
2019-02-20T03:25:18.555Z,62.54
2019-02-20T03:26:22.503Z,62.60
2019-02-20T03:27:26.751Z,62.75
2019-02-20T03:28:31.250Z,62.79
2019-02-20T03:29:35.179Z,62.84
2019-02-20T03:30:39.657Z,62.96
2019-02-20T03:31:43.934Z,62.98
2019-02-20T03:32:48.107Z,62.97
2019-02-20T03:33:52.268Z,62.85
2019-02-20T03:34:56.513Z,62.98
2019-02-20T03:36:00.459Z,63.06
2019-02-20T03:37:04.704Z,63.24
2019-02-20T03:38:08.639Z,63.34
2019-02-20T03:39:12.664Z,63.48
2019-02-20T03:40:16.886Z,63.58
2019-02-20T03:41:20.917Z,63.67
2019-02-20T03:42:24.913Z,63.77
2019-02-20T03:43:29.175Z,63.92
2019-02-20T03:44:33.433Z,63.89
2019-02-20T03:45:37.352Z,63.94
2019-02-20T03:46:41.615Z,63.99
2019-02-20T03:47:45.714Z,64.04
2019-02-20T03:48:49.653Z,64.07
2019-02-20T03:49:53.917Z,64.05
2019-02-20T03:50:57.926Z,64.01
2019-02-20T03:52:02.124Z,63.96
2019-02-20T03:53:06.227Z,63.86
2019-02-20T03:54:11.001Z,63.75
2019-02-20T03:55:15.106Z,63.61
2019-02-20T03:56:19.275Z,63.45
2019-02-20T03:57:23.228Z,63.37
2019-02-20T03:58:27.240Z,63.34
2019-02-20T03:59:31.503Z,63.30
2019-02-20T04:00:35.545Z,63.32
2019-02-20T04:01:39.813Z,63.32
2019-02-20T04:02:43.753Z,63.24
2019-02-20T04:03:48.168Z,63.21
2019-02-20T04:04:52.116Z,63.20
2019-02-20T04:05:56.867Z,63.19
2019-02-20T04:07:00.873Z,63.21
2019-02-20T04:08:04.970Z,63.21
2019-02-20T04:09:09.258Z,63.22
2019-02-20T04:10:13.280Z,63.19
2019-02-20T04:11:17.222Z,63.22
2019-02-20T04:12:21.247Z,63.27
2019-02-20T04:13:25.184Z,63.32
2019-02-20T04:14:29.667Z,63.34
2019-02-20T04:15:33.974Z,63.38
2019-02-20T04:16:38.182Z,63.39
2019-02-20T04:17:42.693Z,63.39
2019-02-20T04:18:47.212Z,63.43
2019-02-20T04:19:51.229Z,63.46
2019-02-20T04:20:55.272Z,63.47
2019-02-20T04:21:59.526Z,63.47
2019-02-20T04:23:03.889Z,63.43
2019-02-20T04:24:07.904Z,63.38
2019-02-20T04:25:11.844Z,63.34
2019-02-20T04:26:15.852Z,63.30
2019-02-20T04:27:19.735Z,63.23
2019-02-20T04:28:23.936Z,63.22
2019-02-20T04:29:27.924Z,63.22
2019-02-20T04:30:32.242Z,63.19
2019-02-20T04:31:36.549Z,63.21
2019-02-20T04:32:40.503Z,63.21
2019-02-20T04:33:44.775Z,63.16
2019-02-20T04:34:48.966Z,63.15
2019-02-20T04:35:52.891Z,63.15
2019-02-20T04:36:57.389Z,63.21
2019-02-20T04:38:01.673Z,63.25
2019-02-20T04:39:06.608Z,63.24
2019-02-20T04:40:10.639Z,63.27
2019-02-20T04:41:14.582Z,63.27
2019-02-20T04:42:18.659Z,63.27
2019-02-20T04:43:22.859Z,63.27
2019-02-20T04:44:27.115Z,63.27
2019-02-20T04:45:31.304Z,63.22
2019-02-20T04:46:35.403Z,63.13
2019-02-20T04:47:39.849Z,63.12
2019-02-20T04:48:43.775Z,63.20
2019-02-20T04:49:47.975Z,63.26
2019-02-20T04:50:51.986Z,63.26
2019-02-20T04:51:56.233Z,63.19
2019-02-20T04:53:00.176Z,63.10
2019-02-20T04:54:12.927Z,63.05
2019-02-20T04:55:10.175Z,63.07
2019-02-20T04:56:14.326Z,63.03
2019-02-20T04:57:18.923Z,63.04
2019-02-20T04:58:23.523Z,63.06
2019-02-20T04:59:27.804Z,63.10
2019-02-20T05:00:32.159Z,63.12
2019-02-20T05:01:36.461Z,63.10
2019-02-20T05:02:40.487Z,63.01
2019-02-20T05:03:44.681Z,62.94
2019-02-20T05:04:48.692Z,62.82
2019-02-20T05:05:53.082Z,62.62
2019-02-20T05:06:57.068Z,62.56
2019-02-20T05:08:01.086Z,62.52
2019-02-20T05:09:06.340Z,62.53
2019-02-20T05:10:11.338Z,62.49
2019-02-20T05:11:15.280Z,62.49
2019-02-20T05:12:19.220Z,62.50
2019-02-20T05:13:23.171Z,62.50
2019-02-20T05:14:27.416Z,62.47
2019-02-20T05:15:31.519Z,62.49
2019-02-20T05:16:35.773Z,62.53
2019-02-20T05:17:39.872Z,62.56
2019-02-20T05:18:44.118Z,62.60
2019-02-20T05:19:48.433Z,62.57
2019-02-20T05:20:52.684Z,62.55
2019-02-20T05:21:56.542Z,62.55
2019-02-20T05:23:00.564Z,62.56
2019-02-20T05:24:04.728Z,62.58
2019-02-20T05:25:08.810Z,62.58
2019-02-20T05:26:12.826Z,62.60
2019-02-20T05:27:17.093Z,62.61
2019-02-20T05:28:21.400Z,62.62
2019-02-20T05:29:26.014Z,62.63
2019-02-20T05:30:29.965Z,62.59
2019-02-20T05:31:34.284Z,62.57
2019-02-20T05:32:38.239Z,62.46
2019-02-20T05:33:42.258Z,62.32
2019-02-20T05:34:46.125Z,62.20
2019-02-20T05:35:50.063Z,62.19
2019-02-20T05:36:54.013Z,62.27
2019-02-20T05:37:58.325Z,62.37
2019-02-20T05:39:02.440Z,62.48
2019-02-20T05:40:06.844Z,62.56
2019-02-20T05:41:10.861Z,62.61
2019-02-20T05:42:15.457Z,62.58
2019-02-20T05:43:19.727Z,62.57
2019-02-20T05:44:23.680Z,62.51
2019-02-20T05:45:27.623Z,62.47
2019-02-20T05:46:31.563Z,62.40
2019-02-20T05:47:35.997Z,62.39
2019-02-20T05:48:40.279Z,62.37
2019-02-20T05:49:44.239Z,62.36
2019-02-20T05:50:49.000Z,62.40
2019-02-20T05:51:52.979Z,62.51
2019-02-20T05:52:57.369Z,62.58
2019-02-20T05:54:01.301Z,62.56
2019-02-20T05:55:05.660Z,62.58
2019-02-20T05:56:10.088Z,62.56
2019-02-20T05:57:14.283Z,62.50
2019-02-20T05:58:18.148Z,62.40
2019-02-20T05:59:22.331Z,62.33
2019-02-20T06:00:26.275Z,62.29
2019-02-20T06:01:30.749Z,62.27
2019-02-20T06:02:35.139Z,62.31
2019-02-20T06:03:39.095Z,62.33
2019-02-20T06:04:43.352Z,62.38
2019-02-20T06:05:47.386Z,62.49
2019-02-20T06:06:53.171Z,62.61
2019-02-20T06:07:57.061Z,62.58
2019-02-20T06:09:01.107Z,62.55
2019-02-20T06:10:08.933Z,62.59
2019-02-20T06:11:15.177Z,62.64
2019-02-20T06:12:19.567Z,62.57
2019-02-20T06:13:23.837Z,62.60
2019-02-20T06:14:27.842Z,62.66
2019-02-20T06:15:31.915Z,62.68
2019-02-20T06:16:35.987Z,62.73
2019-02-20T06:17:40.039Z,62.79
2019-02-20T06:18:44.334Z,62.82
2019-02-20T06:19:48.854Z,62.67
2019-02-20T06:20:53.034Z,62.53
2019-02-20T06:21:57.034Z,62.52
2019-02-20T06:23:00.962Z,62.65
2019-02-20T06:24:05.234Z,62.67
2019-02-20T06:25:09.269Z,62.62
2019-02-20T06:26:13.504Z,62.51
2019-02-20T06:27:17.845Z,62.48
2019-02-20T06:28:22.051Z,62.45
2019-02-20T06:29:26.299Z,62.40
2019-02-20T06:30:30.314Z,62.27
2019-02-20T06:31:34.823Z,62.16
2019-02-20T06:32:38.826Z,62.10
2019-02-20T06:33:43.096Z,62.12
2019-02-20T06:34:47.096Z,62.17
2019-02-20T06:35:51.590Z,62.21
2019-02-20T06:36:55.886Z,62.27
2019-02-20T06:38:00.071Z,62.30
2019-02-20T06:39:05.170Z,62.30
2019-02-20T06:40:09.645Z,62.31
2019-02-20T06:41:14.245Z,62.35
2019-02-20T06:42:18.178Z,62.36
2019-02-20T06:43:22.581Z,62.26
2019-02-20T06:44:27.301Z,62.24
2019-02-20T06:45:31.310Z,62.26
2019-02-20T06:46:35.511Z,62.34
2019-02-20T06:47:39.707Z,62.44
2019-02-20T06:48:43.991Z,62.45
2019-02-20T06:49:48.010Z,62.53
2019-02-20T06:50:52.031Z,62.56
2019-02-20T06:51:56.510Z,62.52
2019-02-20T06:53:01.020Z,62.47
2019-02-20T06:54:05.040Z,62.38
2019-02-20T06:55:09.661Z,62.24
2019-02-20T06:56:13.967Z,62.21
2019-02-20T06:57:18.256Z,62.20
2019-02-20T06:58:22.479Z,62.21
2019-02-20T06:59:26.622Z,62.35
2019-02-20T07:00:30.644Z,62.41
2019-02-20T07:01:34.943Z,62.36
2019-02-20T07:02:39.075Z,62.31
2019-02-20T07:03:43.288Z,62.28
2019-02-20T07:05:23.052Z,62.44
2019-02-20T07:06:37.809Z,62.47
2019-02-20T07:08:17.635Z,62.53
2019-02-20T07:10:07.608Z,62.90
2019-02-20T07:11:38.793Z,62.98
2019-02-20T07:13:09.271Z,63.10
2019-02-20T07:14:32.406Z,63.18
2019-02-20T07:16:45.524Z,63.21
2019-02-20T07:18:29.010Z,63.24
2019-02-20T07:19:47.961Z,63.31
2019-02-20T07:21:15.623Z,63.52
2019-02-20T07:23:12.915Z,63.52
2019-02-20T07:24:47.736Z,63.62
2019-02-20T07:26:26.967Z,63.39
2019-02-20T07:28:14.758Z,63.45
2019-02-20T07:29:43.314Z,63.56
2019-02-20T07:30:47.177Z,63.48
2019-02-20T07:31:51.387Z,63.36
2019-02-20T07:32:55.891Z,63.21
2019-02-20T07:34:00.183Z,63.15
2019-02-20T07:35:04.405Z,63.04
2019-02-20T07:36:08.412Z,62.96
2019-02-20T07:37:12.596Z,62.85
2019-02-20T07:38:16.802Z,62.73
2019-02-20T07:39:20.983Z,62.64
2019-02-20T07:40:24.996Z,62.51
2019-02-20T07:41:29.169Z,62.41
2019-02-20T07:42:33.295Z,62.33
2019-02-20T07:43:37.483Z,62.24
2019-02-20T07:44:41.684Z,62.18
2019-02-20T07:45:45.685Z,61.99
2019-02-20T07:46:49.796Z,61.81
2019-02-20T07:47:54.352Z,61.88
2019-02-20T07:48:58.367Z,61.71
2019-02-20T07:50:02.886Z,61.47
2019-02-20T07:51:06.991Z,61.43
2019-02-20T07:52:11.392Z,61.45
2019-02-20T07:53:15.589Z,61.23
2019-02-20T07:54:19.790Z,61.06
2019-02-20T07:55:24.057Z,60.97
2019-02-20T07:56:28.316Z,60.86
2019-02-20T07:57:32.266Z,60.64
2019-02-20T07:58:36.515Z,60.48
2019-02-20T07:59:40.579Z,60.51
2019-02-20T08:00:44.518Z,60.72
2019-02-20T08:01:48.710Z,60.80
2019-02-20T08:02:52.984Z,60.90
2019-02-20T08:03:56.928Z,60.94
2019-02-20T08:05:01.243Z,60.68
2019-02-20T08:06:05.583Z,60.44
2019-02-20T08:07:09.890Z,60.33
2019-02-20T08:08:14.157Z,60.31
2019-02-20T08:09:18.477Z,60.30
2019-02-20T08:10:22.483Z,60.33
2019-02-20T08:11:26.797Z,60.28
2019-02-20T08:12:31.059Z,60.06
2019-02-20T08:13:39.241Z,59.92
2019-02-20T08:14:40.911Z,59.75
2019-02-20T08:15:45.423Z,59.62
2019-02-20T08:16:52.240Z,59.63
2019-02-20T08:17:55.448Z,59.70
2019-02-20T08:18:59.626Z,59.78
2019-02-20T08:20:03.731Z,59.63
2019-02-20T08:21:07.674Z,59.34
2019-02-20T08:22:11.608Z,59.34
2019-02-20T08:23:16.132Z,59.51
2019-02-20T08:24:20.299Z,59.32
2019-02-20T08:25:24.562Z,59.09
2019-02-20T08:26:28.493Z,58.67
2019-02-20T08:27:32.749Z,58.51
2019-02-20T08:28:36.695Z,58.51
2019-02-20T08:29:40.701Z,58.53
2019-02-20T08:30:44.872Z,58.56
2019-02-20T08:31:49.141Z,58.60
2019-02-20T08:32:53.085Z,58.49
2019-02-20T08:33:57.297Z,58.52
2019-02-20T08:35:01.409Z,58.59
2019-02-20T08:36:05.709Z,58.60
2019-02-20T08:37:09.986Z,58.61
2019-02-20T08:38:13.943Z,58.53
2019-02-20T08:39:18.085Z,58.62
2019-02-20T08:40:22.127Z,58.68
2019-02-20T08:41:26.059Z,58.56
2019-02-20T08:42:30.167Z,58.38
2019-02-20T08:43:34.037Z,58.57
2019-02-20T08:44:38.026Z,58.86
2019-02-20T08:45:41.960Z,58.93
2019-02-20T08:46:45.961Z,58.94
2019-02-20T08:47:50.181Z,59.21
2019-02-20T08:48:54.370Z,59.30
2019-02-20T08:49:58.635Z,59.28
2019-02-20T08:51:03.095Z,59.46
2019-02-20T08:52:07.918Z,59.54
2019-02-20T08:53:12.308Z,59.61
2019-02-20T08:54:16.486Z,59.64
2019-02-20T08:55:21.566Z,59.47
2019-02-20T08:56:26.054Z,59.53
2019-02-20T08:57:30.295Z,59.69
2019-02-20T08:58:34.309Z,59.78
2019-02-20T08:59:38.335Z,59.89
2019-02-20T09:00:42.592Z,59.92
2019-02-20T09:01:46.514Z,59.83
2019-02-20T09:02:50.475Z,59.77
2019-02-20T09:03:54.423Z,59.82
2019-02-20T09:04:58.606Z,59.67
2019-02-20T09:06:02.595Z,59.43
2019-02-20T09:07:07.048Z,59.39
2019-02-20T09:08:11.057Z,59.40
2019-02-20T09:09:15.051Z,59.39
2019-02-20T09:10:19.161Z,59.37
2019-02-20T09:11:23.532Z,59.22
2019-02-20T09:12:27.471Z,59.10
2019-02-20T09:13:31.385Z,59.07
2019-02-20T09:14:35.250Z,59.05
2019-02-20T09:15:39.116Z,59.10
2019-02-20T09:16:43.427Z,59.11
2019-02-20T09:17:47.287Z,59.07
2019-02-20T09:18:51.490Z,58.96
2019-02-20T09:19:55.500Z,58.99
2019-02-20T09:20:59.328Z,59.02
2019-02-20T09:22:03.316Z,58.94
2019-02-20T09:23:07.322Z,58.93
2019-02-20T09:24:11.736Z,58.97
2019-02-20T09:25:19.837Z,59.04
2019-02-20T09:26:22.299Z,59.09
2019-02-20T09:27:26.438Z,59.09
2019-02-20T09:28:31.019Z,59.13
2019-02-20T09:29:34.963Z,59.05
2019-02-20T09:30:38.898Z,59.15
2019-02-20T09:31:43.364Z,59.28
2019-02-20T09:32:47.554Z,59.38
2019-02-20T09:33:51.742Z,59.47
2019-02-20T09:34:55.943Z,59.56
2019-02-20T09:36:00.251Z,59.64
2019-02-20T09:37:04.460Z,59.62
2019-02-20T09:38:10.487Z,59.66
2019-02-20T09:39:46.071Z,59.64
2019-02-20T09:40:50.253Z,59.69
2019-02-20T09:41:54.611Z,59.72
2019-02-20T09:42:58.539Z,59.84
2019-02-20T09:44:02.544Z,59.90
2019-02-20T09:45:06.753Z,59.98
2019-02-20T09:46:10.653Z,59.93
2019-02-20T09:47:14.900Z,59.91
2019-02-20T09:48:23.911Z,59.83
2019-02-20T09:49:28.230Z,59.83
2019-02-20T09:50:32.464Z,59.88
2019-02-20T09:51:36.632Z,59.95
2019-02-20T09:52:40.948Z,59.97
2019-02-20T09:53:45.240Z,59.82
2019-02-20T09:54:49.508Z,59.77
2019-02-20T09:55:53.510Z,59.76
2019-02-20T09:56:57.698Z,59.77
2019-02-20T09:58:02.203Z,59.77
2019-02-20T09:59:06.206Z,59.80
2019-02-20T10:00:12.780Z,59.78
2019-02-20T10:01:17.056Z,59.74
2019-02-20T10:02:21.060Z,59.83
2019-02-20T10:03:25.232Z,59.93
2019-02-20T10:04:29.418Z,59.95
2019-02-20T10:05:33.438Z,59.93
2019-02-20T10:06:37.714Z,59.92
2019-02-20T10:07:41.741Z,59.86
2019-02-20T10:08:45.889Z,59.82
2019-02-20T10:09:49.822Z,59.88
2019-02-20T10:10:53.764Z,59.86
2019-02-20T10:11:57.942Z,59.90
2019-02-20T10:13:01.798Z,59.91
2019-02-20T10:14:06.046Z,59.89
2019-02-20T10:15:11.207Z,59.78
2019-02-20T10:16:15.370Z,59.79
2019-02-20T10:17:20.107Z,59.73
2019-02-20T10:18:24.037Z,59.75
2019-02-20T10:19:28.043Z,59.69
2019-02-20T10:20:32.497Z,59.67
2019-02-20T10:21:36.494Z,59.65
2019-02-20T10:22:40.495Z,59.70
2019-02-20T10:23:45.302Z,59.68
2019-02-20T10:24:49.159Z,59.67
2019-02-20T10:26:00.547Z,59.43
2019-02-20T10:27:00.873Z,59.08
2019-02-20T10:28:05.015Z,58.88
2019-02-20T10:29:08.966Z,58.98
2019-02-20T10:30:15.102Z,59.14
2019-02-20T10:31:19.125Z,59.25
2019-02-20T10:32:23.118Z,59.31
2019-02-20T10:33:26.989Z,59.36
2019-02-20T10:34:31.261Z,59.48
2019-02-20T10:35:35.114Z,59.47
2019-02-20T10:36:39.705Z,59.45
2019-02-20T10:37:43.746Z,59.39
2019-02-20T10:38:47.621Z,59.32
2019-02-20T10:39:51.906Z,59.23
2019-02-20T10:40:55.947Z,59.18
2019-02-20T10:41:59.964Z,59.25
2019-02-20T10:43:03.977Z,59.28
2019-02-20T10:44:08.554Z,59.27
2019-02-20T10:45:12.589Z,59.22
2019-02-20T10:46:17.246Z,59.17
2019-02-20T10:47:21.119Z,58.99
2019-02-20T10:48:25.452Z,58.97
2019-02-20T10:49:29.387Z,58.99
2019-02-20T10:50:33.866Z,59.01
2019-02-20T10:51:37.879Z,58.96
2019-02-20T10:52:41.808Z,58.85
2019-02-20T10:53:45.735Z,58.78
2019-02-20T10:54:57.393Z,58.68
2019-02-20T10:55:55.314Z,58.63
2019-02-20T10:56:59.202Z,58.70
2019-02-20T10:58:03.133Z,58.75
2019-02-20T10:59:07.645Z,58.75
2019-02-20T11:00:26.699Z,58.78
2019-02-20T11:01:30.714Z,58.72
2019-02-20T11:02:35.091Z,58.65
2019-02-20T11:03:39.189Z,58.53
2019-02-20T11:04:43.201Z,58.49
2019-02-20T11:05:47.458Z,58.35
2019-02-20T11:06:53.331Z,58.32
2019-02-20T11:07:57.403Z,58.26
2019-02-20T11:09:01.690Z,58.23
2019-02-20T11:10:07.520Z,58.13
2019-02-20T11:11:11.517Z,57.97
2019-02-20T11:12:16.005Z,57.87
2019-02-20T11:13:19.940Z,57.78
2019-02-20T11:14:23.822Z,57.67
2019-02-20T11:15:27.751Z,57.53
2019-02-20T11:16:33.091Z,57.18
2019-02-20T11:17:37.566Z,57.07
2019-02-20T11:18:41.419Z,56.97
2019-02-20T11:19:45.425Z,56.75
2019-02-20T11:20:49.432Z,56.54
2019-02-20T11:21:53.607Z,56.39
2019-02-20T11:22:57.556Z,56.14
2019-02-20T11:24:01.820Z,55.97
2019-02-20T11:25:06.767Z,55.85
2019-02-20T11:26:17.875Z,55.56
2019-02-20T11:27:16.445Z,55.14
2019-02-20T11:28:26.780Z,54.99
2019-02-20T11:29:26.311Z,54.50
2019-02-20T11:30:30.958Z,54.01
2019-02-20T11:31:35.288Z,53.77
2019-02-20T11:32:39.595Z,53.67
2019-02-20T11:33:43.614Z,53.54
2019-02-20T11:34:48.022Z,53.09
2019-02-20T11:35:52.325Z,52.66
2019-02-20T11:36:56.519Z,52.25
2019-02-20T11:38:00.400Z,51.97
2019-02-20T11:39:06.160Z,51.82
2019-02-20T11:40:10.485Z,51.75
2019-02-20T11:41:14.526Z,51.67
2019-02-20T11:42:18.529Z,51.37
2019-02-20T11:43:22.479Z,50.89
2019-02-20T11:44:26.838Z,50.61
2019-02-20T11:45:31.172Z,50.39
2019-02-20T11:46:35.214Z,50.24
2019-02-20T11:47:39.426Z,50.03
2019-02-20T11:48:44.360Z,49.56
2019-02-20T11:49:48.522Z,48.97
2019-02-20T11:50:52.568Z,48.58
2019-02-20T11:51:56.728Z,48.39
2019-02-20T11:53:01.188Z,48.22
2019-02-20T11:54:05.250Z,47.38
2019-02-20T11:55:09.524Z,46.52
2019-02-20T11:56:13.966Z,46.75
2019-02-20T11:57:18.168Z,46.80
2019-02-20T11:58:22.293Z,46.52
2019-02-20T11:59:26.714Z,46.31
2019-02-20T12:00:31.046Z,46.33
2019-02-20T12:01:35.472Z,46.25
2019-02-20T12:02:39.606Z,46.07
2019-02-20T12:03:43.830Z,45.08
2019-02-20T12:04:47.805Z,44.61
2019-02-20T12:05:51.838Z,44.76
2019-02-20T12:06:56.146Z,44.77
2019-02-20T12:08:00.435Z,44.81
2019-02-20T12:09:05.702Z,44.77
2019-02-20T12:10:09.951Z,44.77
2019-02-20T12:11:14.230Z,44.40
2019-02-20T12:12:18.583Z,44.35
2019-02-20T12:13:22.610Z,44.43
2019-02-20T12:14:26.641Z,44.39
2019-02-20T12:15:31.069Z,44.30
2019-02-20T12:16:35.614Z,43.93
2019-02-20T12:17:41.051Z,43.67
2019-02-20T12:18:48.056Z,43.71
2019-02-20T12:19:52.058Z,43.75
2019-02-20T12:20:56.087Z,43.89
2019-02-20T12:22:00.393Z,43.89
2019-02-20T12:23:04.399Z,43.82
2019-02-20T12:24:08.735Z,43.72
2019-02-20T12:25:16.525Z,43.59
2019-02-20T12:26:20.671Z,43.57
2019-02-20T12:27:24.942Z,43.67
2019-02-20T12:28:29.166Z,43.80
2019-02-20T12:29:33.375Z,43.40
2019-02-20T12:30:38.141Z,42.89
2019-02-20T12:31:42.205Z,42.97
2019-02-20T12:32:46.553Z,43.21
2019-02-20T12:33:52.246Z,43.36
2019-02-20T12:34:56.347Z,43.54
2019-02-20T12:36:00.463Z,43.17
2019-02-20T12:37:04.789Z,42.11
2019-02-20T12:38:09.146Z,42.05
2019-02-20T12:39:13.098Z,41.06
2019-02-20T12:40:17.112Z,40.45
2019-02-20T12:41:21.458Z,40.75
2019-02-20T12:42:25.869Z,40.92
2019-02-20T12:43:29.875Z,41.16
2019-02-20T12:44:33.915Z,41.31
2019-02-20T12:45:37.903Z,41.30
2019-02-20T12:46:42.283Z,40.95
2019-02-20T12:47:46.669Z,40.96
2019-02-20T12:48:51.100Z,41.06
2019-02-20T12:49:55.103Z,40.79
2019-02-20T12:50:59.421Z,40.81
2019-02-20T12:52:03.926Z,40.92
2019-02-20T12:53:08.208Z,41.19
2019-02-20T12:54:12.222Z,41.11
2019-02-20T12:55:16.540Z,40.87
2019-02-20T12:56:20.495Z,40.71
2019-02-20T12:57:24.925Z,40.71
2019-02-20T12:58:29.116Z,40.45
2019-02-20T12:59:33.166Z,40.24
2019-02-20T13:00:37.166Z,39.99
2019-02-20T13:01:41.179Z,40.30
2019-02-20T13:02:45.212Z,40.28
2019-02-20T13:03:49.283Z,40.10
2019-02-20T13:04:53.438Z,40.20
2019-02-20T13:05:57.533Z,40.28
2019-02-20T13:07:01.496Z,40.03
2019-02-20T13:08:05.530Z,40.07
2019-02-20T13:09:12.707Z,40.10
2019-02-20T13:10:17.137Z,39.64
2019-02-20T13:11:21.479Z,38.95
2019-02-20T13:12:25.516Z,38.42
2019-02-20T13:13:29.576Z,38.91
2019-02-20T13:14:33.673Z,38.97
2019-02-20T13:15:38.031Z,38.96
2019-02-20T13:16:42.162Z,38.94
2019-02-20T13:17:46.221Z,39.07
2019-02-20T13:18:50.185Z,39.35
2019-02-20T13:19:56.737Z,39.63
2019-02-20T13:21:00.631Z,39.71
2019-02-20T13:22:04.664Z,39.80
2019-02-20T13:23:08.831Z,39.82
2019-02-20T13:24:12.907Z,39.72
2019-02-20T13:25:27.304Z,39.74
2019-02-20T13:26:31.341Z,39.81
2019-02-20T13:27:35.363Z,39.97
2019-02-20T13:28:39.722Z,40.05
2019-02-20T13:29:44.279Z,40.13
2019-02-20T13:30:48.430Z,40.18
2019-02-20T13:31:52.750Z,40.18
2019-02-20T13:32:57.077Z,40.16
2019-02-20T13:34:01.143Z,39.81
2019-02-20T13:35:05.857Z,39.78
2019-02-20T13:36:10.070Z,39.84
2019-02-20T13:37:14.129Z,39.84
2019-02-20T13:38:18.142Z,39.76
2019-02-20T13:39:22.437Z,39.79
2019-02-20T13:40:26.408Z,39.71
2019-02-20T13:41:30.998Z,39.37
2019-02-20T13:42:35.070Z,38.82
2019-02-20T13:43:39.638Z,39.20
2019-02-20T13:44:43.676Z,39.49
2019-02-20T13:45:48.253Z,39.46
2019-02-20T13:46:53.837Z,39.06
2019-02-20T13:47:58.028Z,39.19
2019-02-20T13:49:02.153Z,39.25
2019-02-20T13:50:07.166Z,39.22
2019-02-20T13:51:11.117Z,39.06
2019-02-20T13:52:15.039Z,38.87
2019-02-20T13:53:19.220Z,38.74
2019-02-20T13:54:23.237Z,38.66
2019-02-20T13:55:34.289Z,38.57
2019-02-20T13:56:32.897Z,38.31
2019-02-20T13:57:36.845Z,38.30
2019-02-20T13:58:41.193Z,38.21